createdAt,value
2022-11-02T00:01:44.413Z,97.76
2022-11-02T00:04:11.010Z,97.89
2022-11-02T00:06:37.497Z,97.52
2022-11-02T00:09:04.117Z,97.77
2022-11-02T00:11:30.831Z,97.79
2022-11-02T00:13:57.325Z,97.76
2022-11-02T00:16:25.373Z,97.70
2022-11-02T00:18:55.967Z,97.82
2022-11-02T00:21:25.817Z,97.66
2022-11-02T00:23:53.148Z,97.72
2022-11-02T00:26:19.920Z,97.32
2022-11-02T00:28:46.580Z,97.77
2022-11-02T00:31:13.045Z,97.44
2022-11-02T00:33:39.535Z,97.39
2022-11-02T00:36:06.290Z,97.60
2022-11-02T00:38:32.840Z,96.90
2022-11-02T00:40:59.652Z,96.98
2022-11-02T00:43:26.085Z,96.76
2022-11-02T00:45:52.509Z,96.50
2022-11-02T00:48:19.055Z,96.74
2022-11-02T00:50:45.598Z,96.67
2022-11-02T00:53:12.171Z,96.67
2022-11-02T00:55:38.611Z,96.88
2022-11-02T00:58:05.345Z,96.52
2022-11-02T01:00:32.282Z,96.82
2022-11-02T01:03:02.606Z,96.80
2022-11-02T01:05:29.960Z,96.92
2022-11-02T01:07:57.156Z,97.03
2022-11-02T01:10:25.986Z,96.92
2022-11-02T01:12:52.447Z,96.92
2022-11-02T01:15:18.951Z,97.04
2022-11-02T01:17:45.381Z,96.90
2022-11-02T01:20:12.128Z,97.22
2022-11-02T01:22:38.638Z,96.67
2022-11-02T01:25:05.234Z,96.51
2022-11-02T01:27:32.093Z,96.74
2022-11-02T01:29:58.548Z,96.52
2022-11-02T01:32:25.049Z,96.36
2022-11-02T01:34:51.615Z,96.32
2022-11-02T01:37:18.127Z,96.44
2022-11-02T01:39:44.756Z,96.69
2022-11-02T01:42:23.048Z,96.47
2022-11-02T01:44:49.533Z,96.44
2022-11-02T01:47:29.627Z,96.07
2022-11-02T01:50:29.631Z,96.54
2022-11-02T01:52:56.144Z,96.44
2022-11-02T01:55:29.335Z,96.60
2022-11-02T01:58:10.722Z,96.54
2022-11-02T02:00:38.691Z,96.77
2022-11-02T02:03:11.594Z,96.42
2022-11-02T02:05:45.426Z,96.62
2022-11-02T02:08:16.138Z,96.46
2022-11-02T02:10:42.658Z,96.01
2022-11-02T02:13:09.192Z,96.05
2022-11-02T02:15:55.556Z,96.18
2022-11-02T02:18:32.073Z,95.80
2022-11-02T02:21:17.177Z,96.20
2022-11-02T02:24:08.610Z,95.87
2022-11-02T02:26:59.330Z,95.92
2022-11-02T02:29:50.594Z,96.07
2022-11-02T02:32:27.954Z,96.17
2022-11-02T02:34:59.257Z,96.37
2022-11-02T02:37:36.283Z,96.58
2022-11-02T02:40:10.630Z,96.40
2022-11-02T02:42:44.353Z,96.26
2022-11-02T02:45:27.721Z,96.22
2022-11-02T02:48:21.505Z,96.42
2022-11-02T02:50:55.902Z,96.27
2022-11-02T02:53:37.278Z,96.04
2022-11-02T02:56:05.016Z,96.18
2022-11-02T02:58:38.095Z,95.89
2022-11-02T03:01:06.217Z,95.83
2022-11-02T03:03:34.339Z,95.82
2022-11-02T03:06:07.030Z,95.93
2022-11-02T03:08:38.252Z,96.09
2022-11-02T03:11:17.095Z,95.42
2022-11-02T03:13:58.755Z,95.55
2022-11-02T03:16:40.713Z,96.09
2022-11-02T03:19:19.786Z,95.64
2022-11-02T03:21:52.554Z,95.77
2022-11-02T03:24:23.375Z,96.21
2022-11-02T03:27:17.512Z,96.29
2022-11-02T03:29:59.467Z,96.15
2022-11-02T03:32:39.347Z,96.34
2022-11-02T03:35:16.594Z,96.03
2022-11-02T03:37:49.553Z,96.10
2022-11-02T03:40:38.082Z,95.95
2022-11-02T03:43:07.204Z,96.07
2022-11-02T03:45:40.070Z,95.82
2022-11-02T03:48:08.844Z,95.47
2022-11-02T03:50:39.621Z,95.85
2022-11-02T03:53:18.050Z,95.26
2022-11-02T03:55:50.503Z,95.12
2022-11-02T03:58:17.010Z,95.44
2022-11-02T04:00:50.154Z,95.32
2022-11-02T04:03:18.249Z,94.97
2022-11-02T04:05:44.747Z,94.97
2022-11-02T04:08:20.858Z,94.77
2022-11-02T04:11:10.433Z,94.60
2022-11-02T04:13:55.854Z,94.84
2022-11-02T04:16:26.646Z,94.96
2022-11-02T04:19:13.137Z,95.04
2022-11-02T04:22:12.862Z,95.20
2022-11-02T04:24:57.771Z,94.59
2022-11-02T04:27:24.340Z,94.85
2022-11-02T04:29:51.091Z,94.79
2022-11-02T04:32:37.952Z,95.36
2022-11-02T04:35:05.554Z,95.04
2022-11-02T04:37:56.314Z,95.24
2022-11-02T04:40:22.805Z,95.07
2022-11-02T04:42:49.260Z,95.29
2022-11-02T04:45:15.853Z,94.99
2022-11-02T04:47:43.069Z,95.24
2022-11-02T04:50:09.981Z,95.37
2022-11-02T04:52:36.465Z,95.27
2022-11-02T04:55:03.095Z,95.80
2022-11-02T04:57:29.721Z,95.77
2022-11-02T04:59:56.324Z,95.59
2022-11-02T05:02:22.911Z,95.41
2022-11-02T05:04:49.419Z,95.46
2022-11-02T05:07:15.958Z,95.53
2022-11-02T05:09:42.503Z,95.83
2022-11-02T05:12:08.972Z,95.74
2022-11-02T05:14:35.817Z,96.19
2022-11-02T05:17:02.568Z,96.12
2022-11-02T05:19:29.015Z,96.19
2022-11-02T05:21:55.490Z,96.20
2022-11-02T05:24:22.054Z,96.18
2022-11-02T05:26:52.879Z,96.79
2022-11-02T05:29:20.820Z,96.57
2022-11-02T05:31:47.329Z,96.42
2022-11-02T05:34:13.826Z,96.37
2022-11-02T05:36:40.298Z,96.57
2022-11-02T05:39:06.797Z,96.19
2022-11-02T05:41:33.274Z,95.76
2022-11-02T05:44:00.067Z,96.12
2022-11-02T05:46:26.557Z,96.02
2022-11-02T05:48:52.994Z,96.07
2022-11-02T05:51:23.557Z,96.05
2022-11-02T05:53:50.218Z,95.60
2022-11-02T05:56:22.082Z,95.42
2022-11-02T06:01:18.812Z,95.68
2022-11-02T06:03:49.054Z,95.39
2022-11-02T06:06:19.797Z,95.50
2022-11-02T06:08:46.252Z,95.71
2022-11-02T06:11:14.276Z,95.69
2022-11-02T06:13:41.874Z,95.45
2022-11-02T06:16:10.412Z,95.68
2022-11-02T06:18:38.493Z,95.69
2022-11-02T06:21:05.555Z,95.67
2022-11-02T06:23:32.188Z,95.77
2022-11-02T06:26:00.643Z,95.88
2022-11-02T06:28:28.210Z,95.79
2022-11-02T06:30:54.821Z,96.03
2022-11-02T06:33:21.838Z,96.34
2022-11-02T06:35:50.425Z,96.13
2022-11-02T06:38:17.608Z,96.14
2022-11-02T06:40:52.780Z,96.19
2022-11-02T06:43:19.540Z,96.27
2022-11-02T06:45:46.843Z,96.39
2022-11-02T06:48:13.378Z,96.22
2022-11-02T06:50:39.882Z,96.11
2022-11-02T06:53:06.606Z,96.24
2022-11-02T06:55:33.421Z,96.29
2022-11-02T06:57:59.864Z,96.43
2022-11-02T07:00:26.382Z,96.52
2022-11-02T07:03:05.307Z,96.44
2022-11-02T07:05:32.957Z,96.66
2022-11-02T07:07:59.685Z,96.53
2022-11-02T07:10:26.979Z,96.72
2022-11-02T07:12:54.429Z,96.04
2022-11-02T07:15:22.371Z,95.90
2022-11-02T07:17:48.880Z,96.10
2022-11-02T07:20:19.436Z,95.60
2022-11-02T07:22:57.722Z,95.50
2022-11-02T07:25:25.742Z,95.12
2022-11-02T07:27:52.294Z,95.32
2022-11-02T07:30:19.254Z,95.42
2022-11-02T07:32:46.598Z,95.01
2022-11-02T07:35:14.393Z,94.74
2022-11-02T07:37:41.653Z,93.67
2022-11-02T07:40:10.684Z,94.37
2022-11-02T07:42:43.561Z,93.91
2022-11-02T07:45:10.569Z,93.99
2022-11-02T07:47:45.021Z,94.06
2022-11-02T07:50:13.886Z,94.04
2022-11-02T07:52:59.333Z,92.91
2022-11-02T07:55:28.763Z,91.76
2022-11-02T07:57:59.219Z,91.92
2022-11-02T08:00:28.022Z,92.32
2022-11-02T08:02:58.221Z,91.84
2022-11-02T08:05:25.864Z,92.00
2022-11-02T08:08:06.578Z,92.47
2022-11-02T08:10:37.349Z,89.66
2022-11-02T08:13:08.026Z,89.82
2022-11-02T08:15:34.529Z,88.94
2022-11-02T08:18:07.308Z,89.67
2022-11-02T08:20:35.795Z,86.87
2022-11-02T08:23:02.762Z,86.39
2022-11-02T08:25:29.359Z,85.67
2022-11-02T08:27:58.113Z,85.46
2022-11-02T08:30:25.190Z,84.07
2022-11-02T08:32:56.564Z,82.20
2022-11-02T08:35:24.059Z,78.52
2022-11-02T08:37:58.016Z,79.54
2022-11-02T08:40:24.708Z,78.92
2022-11-02T08:42:56.845Z,77.13
2022-11-02T08:45:23.351Z,79.25
2022-11-02T08:47:49.866Z,77.59
2022-11-02T08:50:16.442Z,79.31
2022-11-02T08:52:42.871Z,79.22
2022-11-02T08:55:09.519Z,76.32
2022-11-02T08:57:53.423Z,76.50
2022-11-02T09:00:23.293Z,74.61
2022-11-02T09:03:12.221Z,74.49
2022-11-02T09:05:43.948Z,74.11
2022-11-02T09:08:17.713Z,75.72
2022-11-02T09:10:45.818Z,75.83
2022-11-02T09:13:14.096Z,75.25
2022-11-02T09:15:40.890Z,75.92
2022-11-02T09:18:08.533Z,78.32
2022-11-02T09:20:36.093Z,79.62
2022-11-02T09:23:02.603Z,76.74
2022-11-02T09:25:29.302Z,79.33
2022-11-02T09:27:57.031Z,79.73
2022-11-02T09:30:25.405Z,79.20
2022-11-02T09:33:00.610Z,78.54
2022-11-02T09:35:29.825Z,76.39
2022-11-02T09:37:56.436Z,78.51
2022-11-02T09:40:25.560Z,75.57
2022-11-02T09:43:33.842Z,76.86
2022-11-02T09:46:05.356Z,75.62
2022-11-02T09:48:40.293Z,76.64
2022-11-02T09:51:16.085Z,76.54
2022-11-02T09:54:30.401Z,76.97
2022-11-02T09:57:00.845Z,76.36
2022-11-02T09:59:27.649Z,75.84
2022-11-02T10:02:12.828Z,74.99
2022-11-02T10:05:04.295Z,75.89
2022-11-02T10:07:36.808Z,75.98
2022-11-02T10:10:23.373Z,74.69
2022-11-02T10:13:08.526Z,73.08
2022-11-02T10:15:40.311Z,72.14
2022-11-02T10:18:14.024Z,71.66
2022-11-02T10:20:46.934Z,71.30
2022-11-02T10:23:36.812Z,72.27
2022-11-02T10:26:04.318Z,71.96
2022-11-02T10:28:34.580Z,69.83
2022-11-02T10:31:03.006Z,69.67
2022-11-02T10:33:31.179Z,69.04
2022-11-02T10:36:21.879Z,71.30
2022-11-02T10:39:19.944Z,71.58
2022-11-02T10:42:06.418Z,66.84
2022-11-02T10:44:59.541Z,65.78
2022-11-02T10:47:30.268Z,67.11
2022-11-02T10:50:14.369Z,64.96
2022-11-02T10:52:44.993Z,63.71
2022-11-02T10:55:21.294Z,65.04
2022-11-02T10:57:49.117Z,62.90
2022-11-02T11:00:28.278Z,63.73
2022-11-02T11:03:18.165Z,63.33
2022-11-02T11:05:50.837Z,64.62
2022-11-02T11:08:41.256Z,65.00
2022-11-02T11:11:15.882Z,61.47
2022-11-02T11:16:42.911Z,62.86
2022-11-02T11:19:40.716Z,62.92
2022-11-02T11:22:23.553Z,63.34
2022-11-02T11:24:50.051Z,60.99
2022-11-02T11:27:23.727Z,60.27
2022-11-02T11:29:56.045Z,60.44
2022-11-02T11:32:30.491Z,60.14
2022-11-02T11:35:04.879Z,60.76
2022-11-02T11:37:31.625Z,62.62
2022-11-02T11:40:04.758Z,62.50
2022-11-02T11:42:35.462Z,59.78
2022-11-02T11:45:06.800Z,58.21
2022-11-02T11:47:39.161Z,59.27
2022-11-02T11:50:28.018Z,58.32
2022-11-02T11:53:13.252Z,58.99
2022-11-02T11:55:48.472Z,57.96
2022-11-02T11:58:23.403Z,58.09
2022-11-02T12:01:11.980Z,58.76
2022-11-02T12:03:53.201Z,58.77
2022-11-02T12:06:28.756Z,59.39
2022-11-02T12:09:16.953Z,58.48
2022-11-02T12:11:46.379Z,57.96
2022-11-02T12:14:37.209Z,57.42
2022-11-02T12:17:28.532Z,58.20
2022-11-02T12:20:04.003Z,57.87
2022-11-02T12:22:42.617Z,58.43
2022-11-02T12:25:35.130Z,59.18
2022-11-02T12:28:18.159Z,57.48
2022-11-02T12:31:01.395Z,57.53
2022-11-02T12:33:46.883Z,58.26
2022-11-02T12:37:03.512Z,57.69
2022-11-02T12:40:05.361Z,57.92
2022-11-02T12:42:53.577Z,58.56
2022-11-02T12:45:34.845Z,58.51
2022-11-02T12:48:05.408Z,57.71
2022-11-02T12:50:58.301Z,57.99
2022-11-02T12:53:54.047Z,57.26
2022-11-02T12:56:34.648Z,58.69
2022-11-02T12:59:01.190Z,59.37
2022-11-02T13:01:36.142Z,58.64
2022-11-02T13:04:29.508Z,57.99
2022-11-02T13:07:06.607Z,57.34
2022-11-02T13:09:51.442Z,55.95
2022-11-02T13:12:21.563Z,56.21
2022-11-02T13:14:57.886Z,55.96
2022-11-02T13:17:27.469Z,55.93
2022-11-02T13:19:58.698Z,55.48
2022-11-02T13:22:38.925Z,55.28
2022-11-02T13:25:21.970Z,54.82
2022-11-02T13:28:04.274Z,55.21
2022-11-02T13:30:33.385Z,54.15
2022-11-02T13:33:04.777Z,53.75
2022-11-02T13:35:37.656Z,54.48
2022-11-02T13:38:13.186Z,53.26
2022-11-02T13:40:49.302Z,53.82
2022-11-02T13:43:24.724Z,51.55
2022-11-02T13:46:28.895Z,51.32
2022-11-02T13:49:21.559Z,50.56
2022-11-02T13:51:52.121Z,49.84
2022-11-02T13:54:27.758Z,50.81
2022-11-02T13:56:57.842Z,50.12
2022-11-02T13:59:30.694Z,50.43
2022-11-02T14:01:59.913Z,51.33
2022-11-02T14:04:27.988Z,51.26
2022-11-02T14:07:02.245Z,52.50
2022-11-02T14:09:44.880Z,51.39
2022-11-02T14:12:12.920Z,51.92
2022-11-02T14:14:39.409Z,53.97
2022-11-02T14:17:13.797Z,52.92
2022-11-02T14:19:40.198Z,54.12
2022-11-02T14:22:13.456Z,54.79
2022-11-02T14:24:40.790Z,54.14
2022-11-02T14:27:10.215Z,53.66
2022-11-02T14:29:44.796Z,54.33
2022-11-02T14:32:14.407Z,55.07
2022-11-02T14:34:56.154Z,53.62
2022-11-02T14:37:41.378Z,53.01
2022-11-02T14:40:47.548Z,53.98
2022-11-02T14:43:51.851Z,54.49
2022-11-02T14:46:32.497Z,53.44
2022-11-02T14:49:00.854Z,53.79
2022-11-02T14:51:31.820Z,54.90
2022-11-02T14:54:15.717Z,54.23
2022-11-02T14:56:51.006Z,53.97
2022-11-02T14:59:32.305Z,52.71
2022-11-02T15:02:15.014Z,52.22
2022-11-02T15:04:54.305Z,53.11
2022-11-02T15:07:27.446Z,53.91
2022-11-02T15:09:59.504Z,52.33
2022-11-02T15:12:28.106Z,52.72
2022-11-02T15:14:57.845Z,52.66
2022-11-02T15:17:24.674Z,52.79
2022-11-02T15:20:12.394Z,54.37
2022-11-02T15:22:43.592Z,53.32
2022-11-02T15:25:21.369Z,55.06
2022-11-02T15:27:51.122Z,54.47
2022-11-02T15:30:26.784Z,54.69
2022-11-02T15:33:03.599Z,54.29
2022-11-02T15:35:34.429Z,54.52
2022-11-02T15:38:19.944Z,54.50
2022-11-02T15:40:55.070Z,55.90
2022-11-02T15:43:47.522Z,56.40
2022-11-02T15:46:23.618Z,55.41
2022-11-02T15:48:53.026Z,56.39
2022-11-02T15:51:44.004Z,55.44
2022-11-02T15:54:29.255Z,55.84
2022-11-02T15:57:11.097Z,56.14
2022-11-02T15:59:55.822Z,56.59
2022-11-02T16:02:33.415Z,56.17
2022-11-02T16:05:02.305Z,57.05
2022-11-02T16:07:38.510Z,56.28
2022-11-02T16:10:23.297Z,57.12
2022-11-02T16:13:20.648Z,57.49
2022-11-02T16:15:49.296Z,57.08
2022-11-02T16:18:34.558Z,58.26
2022-11-02T16:21:02.343Z,58.07
2022-11-02T16:23:31.752Z,58.24
2022-11-02T16:26:01.103Z,58.67
2022-11-02T16:28:28.641Z,59.31
2022-11-02T16:31:19.201Z,59.04
2022-11-02T16:33:55.000Z,60.70
2022-11-02T16:36:31.163Z,60.27
2022-11-02T16:38:58.928Z,61.41
2022-11-02T16:41:27.764Z,62.37
2022-11-02T16:43:55.785Z,62.57
2022-11-02T16:46:41.730Z,62.23
2022-11-02T16:49:11.239Z,62.71
2022-11-02T16:51:38.282Z,63.70
2022-11-02T16:54:30.001Z,64.16
2022-11-02T16:57:07.138Z,63.92
2022-11-02T16:59:45.705Z,64.03
2022-11-02T17:02:13.427Z,64.35
2022-11-02T17:04:42.820Z,64.07
2022-11-02T17:07:39.972Z,63.67
2022-11-02T17:10:07.562Z,64.08
2022-11-02T17:12:40.286Z,64.34
2022-11-02T17:15:26.613Z,64.21
2022-11-02T17:18:08.660Z,64.07
2022-11-02T17:20:37.350Z,63.69
2022-11-02T17:23:07.074Z,63.87
2022-11-02T17:25:36.213Z,64.14
2022-11-02T17:28:05.210Z,63.50
2022-11-02T17:30:35.012Z,63.62
2022-11-02T17:33:19.010Z,63.59
2022-11-02T17:35:47.808Z,64.71
2022-11-02T17:38:14.886Z,64.68
2022-11-02T17:40:42.177Z,65.13
2022-11-02T17:43:08.990Z,65.91
2022-11-02T17:45:39.957Z,65.92
2022-11-02T17:48:08.024Z,66.42
2022-11-02T17:50:36.870Z,67.19
2022-11-02T17:53:05.126Z,67.92
2022-11-02T17:55:34.070Z,67.93
2022-11-02T17:58:00.882Z,68.53
2022-11-02T18:00:28.626Z,68.59
2022-11-02T18:02:57.854Z,68.71
2022-11-02T18:05:32.065Z,68.96
2022-11-02T18:07:59.325Z,68.47
2022-11-02T18:10:30.571Z,68.70
2022-11-02T18:12:57.166Z,69.03
2022-11-02T18:15:32.668Z,68.87
2022-11-02T18:18:00.154Z,69.62
2022-11-02T18:20:28.399Z,69.79
2022-11-02T18:22:56.995Z,69.22
2022-11-02T18:25:32.177Z,70.00
2022-11-02T18:28:03.972Z,69.97
2022-11-02T18:30:32.718Z,70.05
2022-11-02T18:33:01.742Z,71.19
2022-11-02T18:35:34.029Z,71.39
2022-11-02T18:38:00.518Z,71.31
2022-11-02T18:40:32.779Z,71.22
2022-11-02T18:43:01.598Z,71.24
2022-11-02T18:48:01.323Z,71.77
2022-11-02T18:50:27.859Z,72.02
2022-11-02T18:52:54.361Z,72.42
2022-11-02T18:55:20.821Z,72.72
2022-11-02T18:57:50.414Z,72.52
2022-11-02T19:00:17.084Z,72.79
2022-11-02T19:02:43.619Z,73.58
2022-11-02T19:05:30.062Z,72.94
2022-11-02T19:08:18.758Z,74.62
2022-11-02T19:10:47.369Z,75.25
2022-11-02T19:13:17.963Z,74.42
2022-11-02T19:15:44.538Z,76.44
2022-11-02T19:18:11.240Z,76.49
2022-11-02T19:20:37.753Z,77.17
2022-11-02T19:23:04.293Z,77.91
2022-11-02T19:25:30.815Z,78.21
2022-11-02T19:27:57.269Z,78.68
2022-11-02T19:30:24.825Z,78.94
2022-11-02T19:32:51.336Z,79.19
2022-11-02T19:35:17.777Z,79.38
2022-11-02T19:37:44.312Z,79.39
2022-11-02T19:40:11.160Z,79.27
2022-11-02T19:42:45.190Z,79.88
2022-11-02T19:45:16.656Z,80.06
2022-11-02T19:47:44.060Z,80.19
2022-11-02T19:50:10.951Z,79.97
2022-11-02T19:52:46.458Z,79.80
2022-11-02T19:55:12.983Z,80.20
2022-11-02T19:57:39.422Z,80.02
2022-11-02T20:00:06.417Z,79.68
2022-11-02T20:02:32.994Z,79.92
2022-11-02T20:04:59.490Z,80.24
2022-11-02T20:07:25.945Z,81.12
2022-11-02T20:10:10.964Z,81.60
2022-11-02T20:12:38.503Z,81.50
2022-11-02T20:15:07.306Z,82.57
2022-11-02T20:17:46.640Z,82.25
2022-11-02T20:20:20.258Z,82.77
2022-11-02T20:22:50.216Z,82.89
2022-11-02T20:25:17.283Z,83.72
2022-11-02T20:27:45.138Z,83.93
2022-11-02T20:30:12.111Z,84.13
2022-11-02T20:32:38.685Z,84.32
2022-11-02T20:35:09.690Z,84.64
2022-11-02T20:37:39.041Z,84.55
2022-11-02T20:40:05.998Z,84.67
2022-11-02T20:42:33.124Z,84.67
2022-11-02T20:44:59.607Z,84.89
2022-11-02T20:47:26.151Z,85.00
2022-11-02T20:49:52.651Z,84.74
2022-11-02T20:52:24.239Z,84.75
2022-11-02T20:54:51.245Z,84.69
2022-11-02T20:57:37.634Z,84.57
2022-11-02T21:00:08.398Z,84.80
2022-11-02T21:02:40.439Z,84.72
2022-11-02T21:05:10.032Z,84.42
2022-11-02T21:07:36.580Z,84.42
2022-11-02T21:10:03.866Z,84.51
2022-11-02T21:12:50.543Z,84.69
2022-11-02T21:15:17.061Z,84.36
2022-11-02T21:17:43.545Z,84.20
2022-11-02T21:22:58.821Z,84.47
2022-11-02T21:25:25.350Z,84.71
2022-11-02T21:27:51.947Z,84.80
2022-11-02T21:30:19.619Z,84.77
2022-11-02T21:32:46.054Z,84.92
2022-11-02T21:35:12.571Z,84.85
2022-11-02T21:37:39.062Z,85.45
2022-11-02T21:40:06.366Z,85.25
2022-11-02T21:42:35.611Z,85.30
2022-11-02T21:45:02.092Z,85.13
2022-11-02T21:47:34.277Z,85.21
2022-11-02T21:50:05.534Z,84.59
2022-11-02T21:52:35.868Z,84.59
2022-11-02T21:55:03.743Z,84.87
2022-11-02T21:57:30.219Z,85.26
2022-11-02T21:59:57.117Z,85.27
2022-11-02T22:02:23.781Z,85.57
2022-11-02T22:04:54.958Z,85.44
2022-11-02T22:07:22.047Z,85.75
2022-11-02T22:09:48.555Z,85.56
2022-11-02T22:12:33.894Z,85.57
2022-11-02T22:15:00.401Z,85.94
2022-11-02T22:17:48.392Z,85.70
2022-11-02T22:20:13.345Z,86.04
2022-11-02T22:22:39.765Z,86.23
2022-11-02T22:25:06.386Z,86.21
2022-11-02T22:27:32.834Z,86.59
2022-11-02T22:29:59.340Z,86.51
2022-11-02T22:32:25.765Z,86.63
2022-11-02T22:34:52.226Z,86.75
2022-11-02T22:37:37.362Z,86.92
2022-11-02T22:40:04.142Z,87.04
2022-11-02T22:42:30.626Z,87.22
2022-11-02T22:44:58.531Z,86.78
2022-11-02T22:47:25.040Z,87.00
2022-11-02T22:49:51.477Z,87.26
2022-11-02T22:52:17.984Z,87.40
2022-11-02T22:54:44.422Z,87.64
2022-11-02T22:57:10.867Z,87.36
2022-11-02T22:59:37.311Z,87.58
2022-11-02T23:02:04.149Z,87.97
2022-11-02T23:04:30.642Z,88.40
2022-11-02T23:06:57.096Z,88.57
2022-11-02T23:09:24.662Z,88.39
2022-11-02T23:11:51.127Z,88.62
2022-11-02T23:14:19.525Z,88.90
2022-11-02T23:16:47.242Z,88.94
2022-11-02T23:19:31.510Z,89.05
2022-11-02T23:22:25.701Z,89.14
2022-11-02T23:25:12.758Z,89.25
2022-11-02T23:28:02.348Z,89.31
2022-11-02T23:30:52.813Z,89.54
2022-11-02T23:33:20.271Z,89.81
2022-11-02T23:36:06.069Z,89.53
2022-11-02T23:38:51.605Z,89.51
2022-11-02T23:41:19.155Z,89.48
2022-11-02T23:43:46.015Z,89.51
2022-11-02T23:46:12.859Z,89.16
2022-11-02T23:48:41.904Z,89.10
2022-11-02T23:51:28.524Z,89.39
2022-11-02T23:54:13.962Z,89.40
2022-11-02T23:56:43.115Z,89.32
2022-11-02T23:59:14.450Z,89.72
